createdAt,value
2022-09-16T00:00:45.219Z,1.50
2022-09-16T00:05:53.291Z,1.30
2022-09-16T00:11:00.491Z,2.00
2022-09-16T00:16:08.625Z,1.13
2022-09-16T00:21:11.453Z,1.88
2022-09-16T00:26:14.001Z,1.27
2022-09-16T00:31:17.042Z,2.88
2022-09-16T00:36:20.357Z,1.17
2022-09-16T00:41:26.162Z,2.38
2022-09-16T00:46:51.655Z,1.48
2022-09-16T00:51:59.583Z,1.95
2022-09-16T00:57:03.235Z,2.05
2022-09-16T01:02:13.231Z,1.98
2022-09-16T01:07:16.163Z,2.13
2022-09-16T01:12:18.636Z,2.15
2022-09-16T01:17:28.182Z,1.98
2022-09-16T01:22:51.513Z,1.33
2022-09-16T01:28:24.525Z,1.83
2022-09-16T01:33:30.055Z,1.95
2022-09-16T01:39:00.118Z,1.40
2022-09-16T01:44:10.815Z,1.50
2022-09-16T01:49:48.733Z,2.33
2022-09-16T01:54:59.795Z,1.10
2022-09-16T02:00:10.912Z,2.35
2022-09-16T02:05:19.009Z,2.25
2022-09-16T02:10:35.592Z,1.63
2022-09-16T02:15:42.262Z,3.50
2022-09-16T02:20:46.677Z,2.93
2022-09-16T02:25:50.508Z,2.13
2022-09-16T02:30:56.880Z,2.13
2022-09-16T02:36:00.881Z,1.38
2022-09-16T02:41:03.575Z,2.60
2022-09-16T02:46:27.558Z,1.65
2022-09-16T02:51:42.422Z,3.42
2022-09-16T02:56:44.966Z,2.13
2022-09-16T03:01:47.491Z,2.13
2022-09-16T03:06:50.130Z,1.48
2022-09-16T03:12:08.758Z,1.65
2022-09-16T03:17:28.469Z,1.23
2022-09-16T03:22:43.918Z,2.03
2022-09-16T03:28:04.248Z,1.10
2022-09-16T03:33:15.439Z,5.10
2022-09-16T03:38:19.852Z,1.87
2022-09-16T03:43:22.396Z,2.05
2022-09-16T03:48:24.961Z,2.47
2022-09-16T03:53:27.267Z,2.07
2022-09-16T03:58:29.624Z,0.90
2022-09-16T04:03:33.403Z,2.42
2022-09-16T04:08:37.430Z,1.92
2022-09-16T04:13:39.833Z,2.08
2022-09-16T04:18:42.393Z,1.98
2022-09-16T04:23:45.080Z,1.40
2022-09-16T04:28:48.157Z,2.20
2022-09-16T04:33:51.079Z,1.55
2022-09-16T04:38:53.757Z,2.28
2022-09-16T04:43:58.280Z,1.58
2022-09-16T04:49:01.063Z,2.03
2022-09-16T04:54:03.701Z,2.27
2022-09-16T04:59:06.773Z,2.70
2022-09-16T05:04:10.567Z,1.83
2022-09-16T05:09:13.671Z,2.08
2022-09-16T05:14:18.461Z,1.70
2022-09-16T05:19:20.936Z,3.25
2022-09-16T05:24:23.364Z,0.82
2022-09-16T05:29:25.788Z,1.30
2022-09-16T05:34:28.852Z,2.85
2022-09-16T05:39:31.242Z,1.65
2022-09-16T05:44:34.086Z,2.50
2022-09-16T05:49:37.216Z,6.03
2022-09-16T05:54:40.618Z,2.10
2022-09-16T05:59:43.137Z,4.30
2022-09-16T06:04:45.580Z,2.33
2022-09-16T06:09:48.172Z,2.80
2022-09-16T06:14:50.673Z,4.70
2022-09-16T06:19:53.163Z,7.90
2022-09-16T06:24:55.577Z,4.80
2022-09-16T06:29:57.996Z,6.03
2022-09-16T06:35:00.454Z,6.77
2022-09-16T06:40:03.136Z,4.67
2022-09-16T06:45:06.755Z,4.63
2022-09-16T06:50:09.615Z,2.60
2022-09-16T06:55:12.053Z,4.03
2022-09-16T07:00:14.780Z,9.80
2022-09-16T07:05:17.180Z,9.60
2022-09-16T07:10:19.542Z,7.83
2022-09-16T07:15:22.116Z,6.73
2022-09-16T07:20:24.514Z,6.55
2022-09-16T07:25:31.395Z,8.18
2022-09-16T07:30:36.372Z,8.57
2022-09-16T07:35:39.717Z,13.80
2022-09-16T07:40:42.325Z,11.18
2022-09-16T07:45:44.923Z,10.32
2022-09-16T07:50:58.980Z,12.68
2022-09-16T07:56:03.728Z,9.80
2022-09-16T08:01:08.009Z,6.55
2022-09-16T08:06:16.528Z,11.00
2022-09-16T08:11:19.593Z,9.18
2022-09-16T08:16:22.972Z,12.07
2022-09-16T08:21:28.874Z,6.05
2022-09-16T08:26:31.470Z,5.47
2022-09-16T08:31:34.176Z,7.97
2022-09-16T08:36:37.373Z,8.70
2022-09-16T08:41:48.876Z,8.60
2022-09-16T08:47:01.812Z,10.90
2022-09-16T08:52:13.514Z,8.88
2022-09-16T08:57:25.634Z,10.10
2022-09-16T09:02:54.470Z,11.93
2022-09-16T09:08:09.222Z,7.47
2022-09-16T09:13:31.705Z,7.22
2022-09-16T09:18:57.733Z,5.65
2022-09-16T09:24:00.082Z,8.27
2022-09-16T09:29:14.024Z,5.25
2022-09-16T09:34:31.676Z,9.68
2022-09-16T09:40:01.302Z,7.55
2022-09-16T09:45:05.435Z,4.90
2022-09-16T09:50:17.113Z,8.80
2022-09-16T09:55:22.496Z,6.35
2022-09-16T10:00:25.044Z,6.13
2022-09-16T10:05:29.676Z,6.65
2022-09-16T10:10:35.208Z,6.53
2022-09-16T10:15:39.185Z,3.78
2022-09-16T10:20:59.590Z,8.98
2022-09-16T10:26:26.099Z,10.77
2022-09-16T10:31:41.784Z,3.93
2022-09-16T10:36:46.226Z,5.22
2022-09-16T10:41:51.130Z,7.28
2022-09-16T10:46:59.811Z,6.90
2022-09-16T10:52:24.683Z,6.57
2022-09-16T10:57:37.429Z,4.47
2022-09-16T11:03:10.910Z,5.20
2022-09-16T11:08:39.719Z,4.25
2022-09-16T11:14:00.904Z,9.02
2022-09-16T11:19:10.572Z,4.75
2022-09-16T11:24:27.760Z,9.05
2022-09-16T11:29:42.374Z,8.30
2022-09-16T11:55:18.516Z,3.70
2022-09-16T12:00:21.270Z,7.72
2022-09-16T12:05:26.859Z,8.07
2022-09-16T12:10:38.312Z,7.22
2022-09-16T12:16:15.579Z,4.93
2022-09-16T12:21:36.125Z,5.80
2022-09-16T12:26:43.424Z,6.28
2022-09-16T12:32:17.794Z,3.97
2022-09-16T12:37:39.363Z,6.47
2022-09-16T12:43:07.835Z,2.50
2022-09-16T12:48:34.870Z,6.10
2022-09-16T12:53:49.330Z,4.20
2022-09-16T12:59:16.926Z,5.53
2022-09-16T13:04:43.162Z,2.35
2022-09-16T13:09:47.658Z,3.22
2022-09-16T13:14:56.924Z,2.07
2022-09-16T13:20:17.781Z,1.73
2022-09-16T13:25:22.524Z,3.37
2022-09-16T13:30:38.723Z,1.97
2022-09-16T13:35:43.604Z,2.53
2022-09-16T13:41:00.715Z,2.30
2022-09-16T13:46:16.113Z,4.47
2022-09-16T13:51:23.943Z,3.00
2022-09-16T13:56:33.576Z,3.33
2022-09-16T14:02:01.543Z,3.30
2022-09-16T14:07:13.911Z,2.08
2022-09-16T14:12:29.612Z,3.05
2022-09-16T14:17:50.989Z,4.25
2022-09-16T14:23:16.863Z,3.92
2022-09-16T14:28:22.380Z,6.05
2022-09-16T14:33:41.649Z,2.35
2022-09-16T14:38:58.335Z,3.75
2022-09-16T14:44:17.278Z,1.50
2022-09-16T14:49:20.240Z,4.82
2022-09-16T14:54:24.737Z,0.80
2022-09-16T14:59:34.305Z,2.38
2022-09-16T15:04:40.872Z,7.43
2022-09-16T15:09:53.681Z,2.92
2022-09-16T15:14:56.997Z,6.70
2022-09-16T15:20:00.236Z,0.93
2022-09-16T15:25:21.671Z,1.23
2022-09-16T15:30:31.565Z,12.85
2022-09-16T15:35:49.656Z,18.55
2022-09-16T15:41:13.329Z,17.08
2022-09-16T15:46:22.175Z,17.88
2022-09-16T15:51:37.545Z,20.33
2022-09-16T15:56:58.154Z,11.43
2022-09-16T16:02:07.815Z,8.65
2022-09-16T16:07:15.567Z,10.65
2022-09-16T16:12:22.506Z,7.97
2022-09-16T16:17:26.215Z,11.48
2022-09-16T16:22:31.719Z,8.13
2022-09-16T16:27:34.772Z,3.42
2022-09-16T16:32:40.201Z,4.20
2022-09-16T16:37:47.113Z,8.68
2022-09-16T16:42:49.992Z,4.53
2022-09-16T16:47:53.302Z,2.22
2022-09-16T16:52:55.779Z,1.30
2022-09-16T16:57:58.123Z,2.05
2022-09-16T17:03:00.553Z,3.60
2022-09-16T17:08:03.034Z,3.13
2022-09-16T17:13:05.515Z,1.30
2022-09-16T17:18:07.924Z,2.60
2022-09-16T17:23:10.323Z,1.80
2022-09-16T17:28:12.713Z,5.57
2022-09-16T17:33:15.317Z,2.00
2022-09-16T17:38:17.759Z,3.15
2022-09-16T17:43:20.133Z,4.22
2022-09-16T17:48:22.585Z,3.03
2022-09-16T17:53:25.648Z,4.97
2022-09-16T17:58:27.986Z,2.53
2022-09-16T18:03:30.415Z,2.60
2022-09-16T18:08:32.935Z,1.83
2022-09-16T18:13:36.535Z,3.15
2022-09-16T18:18:41.186Z,2.38
2022-09-16T18:23:44.455Z,2.67
2022-09-16T18:29:08.704Z,4.05
2022-09-16T18:34:11.192Z,2.03
2022-09-16T18:39:16.630Z,3.88
2022-09-16T18:44:21.479Z,3.05
2022-09-16T18:49:28.072Z,2.67
2022-09-16T18:54:30.894Z,3.28
2022-09-16T18:59:34.591Z,1.80
2022-09-16T19:04:42.790Z,2.85
2022-09-16T19:09:46.038Z,3.67
2022-09-16T19:14:48.582Z,2.40
2022-09-16T19:19:51.328Z,1.70
2022-09-16T19:24:54.599Z,1.85
2022-09-16T19:29:56.984Z,2.50
2022-09-16T19:34:59.645Z,1.52
2022-09-16T19:40:02.330Z,3.05
2022-09-16T19:45:05.119Z,5.53
2022-09-16T19:50:07.733Z,5.75
2022-09-16T19:55:10.348Z,4.30
2022-09-16T20:00:16.155Z,7.60
2022-09-16T20:05:18.666Z,5.80
2022-09-16T20:10:22.034Z,7.18
2022-09-16T20:15:24.957Z,10.05
2022-09-16T20:20:27.649Z,6.88
2022-09-16T20:25:30.130Z,8.13
2022-09-16T20:30:32.562Z,5.05
2022-09-16T20:35:35.233Z,7.10
2022-09-16T20:40:37.695Z,7.60
2022-09-16T20:45:40.482Z,7.38
2022-09-16T20:50:43.209Z,7.35
2022-09-16T20:55:45.609Z,7.28
2022-09-16T21:00:48.263Z,6.72
2022-09-16T21:05:50.820Z,6.80
2022-09-16T21:10:53.425Z,5.97
2022-09-16T21:15:57.655Z,6.13
2022-09-16T21:21:14.528Z,8.48
2022-09-16T21:26:21.939Z,8.40
2022-09-16T21:31:26.249Z,8.07
2022-09-16T21:36:28.856Z,6.80
2022-09-16T21:41:31.440Z,6.10
2022-09-16T21:46:41.690Z,8.00
2022-09-16T21:51:44.275Z,6.22
2022-09-16T21:56:46.719Z,5.05
2022-09-16T22:01:50.881Z,6.38
2022-09-16T22:06:55.675Z,6.38
2022-09-16T22:11:58.105Z,7.45
2022-09-16T22:17:00.807Z,6.07
2022-09-16T22:22:03.383Z,6.32
2022-09-16T22:27:05.783Z,4.53
2022-09-16T22:32:08.251Z,5.05
2022-09-16T22:37:10.737Z,5.95
2022-09-16T22:42:13.268Z,5.20
2022-09-16T22:47:15.640Z,5.22
2022-09-16T22:52:18.095Z,5.28
2022-09-16T22:57:20.548Z,4.93
2022-09-16T23:02:23.475Z,5.45
2022-09-16T23:07:25.823Z,6.10
2022-09-16T23:12:28.595Z,5.45
2022-09-16T23:17:31.152Z,5.68
2022-09-16T23:22:33.705Z,5.95
2022-09-16T23:27:36.112Z,5.93
2022-09-16T23:32:38.555Z,5.00
2022-09-16T23:37:42.248Z,5.82
2022-09-16T23:42:44.656Z,5.40
2022-09-16T23:47:47.159Z,5.70
2022-09-16T23:52:59.078Z,5.00
2022-09-16T23:58:01.686Z,4.75
